Time;durP1;ratioP1;P1;durP2;ratioP2;P2;SDS_P1;SDS_P2;PMS_P1;PMS_P2;Temp;Humidity;BMP_temperature;BMP_pressure;BME280_temperature;BME280_humidity;BME280_pressure;Samples;Min_cycle;Max_cycle;Signal;HPM_P1;HPM_P2
2022/05/19 00:01:01;;;;;;;;;;;;;;;10.56;59.79;100953.84;4334826;33;20047;-87
2022/05/19 00:03:30;;;;;;;;;;;;;;;10.32;59.77;100950.66;4348471;33;20002;-86
2022/05/19 00:05:58;;;;;;;;;;;;;;;10.39;59.78;100951.44;4334812;33;20036;-86
2022/05/19 00:08:23;;;;;;;;;;;;;;;10.35;59.77;100947.16;4322852;33;20000;-87
2022/05/19 00:10:48;;;;;;;;;;;;;;;10.42;59.78;100949.69;4348227;33;19972;-87
2022/05/19 00:13:13;;;;;;;;;;;;;;;10.28;59.76;100951.56;4345742;33;20020;-87
2022/05/19 00:15:39;;;;;;;;;;;;;;;10.35;59.78;100947.16;4348074;33;19975;-86
2022/05/19 00:18:04;;;;;;;;;;;;;;;10.34;59.77;100954.09;4348353;33;19995;-87
2022/05/19 00:20:29;;;;;;;;;;;;;;;10.51;59.78;100958.25;4334901;33;19971;-87
2022/05/19 00:22:54;;;;;;;;;;;;;;;10.38;59.77;100952.31;4348437;33;20277;-87
2022/05/19 00:25:20;;;;;;;;;;;;;;;10.16;59.76;100955.13;4348284;33;19983;-86
2022/05/19 00:27:45;;;;;;;;;;;;;;;10.35;59.77;100952.34;4322736;33;19995;-87
2022/05/19 00:30:11;;;;;;;;;;;;;;;9.88;59.75;100956.28;4334537;33;20018;-87
2022/05/19 00:32:36;;;;;;;;;;;;;;;9.89;59.75;100954.56;4322499;33;20058;-87
2022/05/19 00:35:01;;;;;;;;;;;;;;;10.01;59.76;100954.44;4322255;33;20302;-86
2022/05/19 00:37:26;;;;;;;;;;;;;;;10.11;59.76;100956.91;4334624;33;19995;-87
2022/05/19 00:39:51;;;;;;;;;;;;;;;10.16;59.77;100952.53;4348298;33;20018;-86
2022/05/19 00:45:01;;;;;;;;;;;;;;;9.83;59.74;100958.09;4336827;33;19971;-86
2022/05/19 00:47:26;;;;;;;;;;;;;;;9.80;59.75;100958.13;4334853;33;20007;-86
2022/05/19 00:49:52;;;;;;;;;;;;;;;9.70;59.73;100949.56;4334883;33;19979;-87
2022/05/19 00:52:22;;;;;;;;;;;;;;;9.76;59.73;100962.50;4335505;33;20313;-87
2022/05/19 00:54:49;;;;;;;;;;;;;;;9.65;59.74;100955.66;4336763;33;20046;-87
2022/05/19 00:57:17;;;;;;;;;;;;;;;9.82;59.75;100957.22;4337655;33;19996;-87
2022/05/19 00:59:47;;;;;;;;;;;;;;;9.73;59.74;100948.66;4338425;33;19947;-86
2022/05/19 01:02:14;;;;;;;;;;;;;;;9.77;59.74;100953.81;4343059;33;19978;-87
2022/05/19 01:04:40;;;;;;;;;;;;;;;9.91;59.75;100945.84;4335271;33;20332;-87
2022/05/19 01:07:17;;;;;;;;;;;;;;;9.84;59.75;100946.81;4334651;33;20357;-87
2022/05/19 01:09:42;;;;;;;;;;;;;;;9.79;59.75;100948.59;4334566;33;20645;-86
2022/05/19 01:12:09;;;;;;;;;;;;;;;9.92;59.75;100949.31;4334272;33;20007;-87
2022/05/19 01:14:34;;;;;;;;;;;;;;;9.63;59.72;100952.19;4334300;33;20010;-87
2022/05/19 01:16:59;;;;;;;;;;;;;;;9.63;59.73;100952.19;4347608;33;20288;-86
2022/05/19 01:19:34;;;;;;;;;;;;;;;9.58;59.73;100947.06;4334378;33;20019;-86
2022/05/19 01:22:01;;;;;;;;;;;;;;;9.65;59.74;100948.72;4334315;33;19991;-87
2022/05/19 01:24:27;;;;;;;;;;;;;;;9.80;59.75;100950.31;4334405;33;20000;-86
2022/05/19 01:26:53;;;;;;;;;;;;;;;9.83;59.74;100942.47;4334466;33;20002;-87
2022/05/19 01:29:19;;;;;;;;;;;;;;;9.47;59.72;100946.28;4333786;33;19975;-86
2022/05/19 01:31:44;;;;;;;;;;;;;;;9.57;59.73;100950.53;4334247;33;19983;-87
2022/05/19 01:34:09;;;;;;;;;;;;;;;9.62;59.73;100947.88;4347757;33;19995;-87
2022/05/19 01:36:35;;;;;;;;;;;;;;;9.62;59.73;100946.16;4347846;33;20005;-87
2022/05/19 01:39:01;;;;;;;;;;;;;;;9.56;59.73;100942.75;4334067;33;19984;-86
2022/05/19 01:41:36;;;;;;;;;;;;;;;9.79;59.75;100940.78;4334143;33;19984;-86
2022/05/19 01:44:12;;;;;;;;;;;;;;;9.56;59.73;100942.75;4347569;33;19979;-86
2022/05/19 01:46:38;;;;;;;;;;;;;;;9.66;59.73;100940.03;4334026;33;19995;-87
2022/05/19 01:49:06;;;;;;;;;;;;;;;9.61;59.73;100943.56;4333979;33;19971;-87
2022/05/19 01:51:38;;;;;;;;;;;;;;;9.57;59.73;100944.47;4347529;33;20034;-87
2022/05/19 01:54:08;;;;;;;;;;;;;;;9.60;59.73;100947.03;4321768;33;20010;-85
2022/05/19 01:56:34;;;;;;;;;;;;;;;9.64;59.73;100948.72;4334035;33;19995;-86
2022/05/19 01:59:11;;;;;;;;;;;;;;;9.66;59.73;100941.78;4333805;33;20409;-86
2022/05/19 02:01:36;;;;;;;;;;;;;;;9.60;59.73;100954.84;4347470;33;19979;-86
2022/05/19 02:04:17;;;;;;;;;;;;;;;9.69;59.73;100947.81;4333524;33;19999;-86
2022/05/19 02:06:44;;;;;;;;;;;;;;;9.80;59.74;100952.91;4334354;33;20010;-87
2022/05/19 02:09:12;;;;;;;;;;;;;;;9.53;59.73;100954.03;4321538;33;19979;-87
2022/05/19 02:11:42;;;;;;;;;;;;;;;9.50;59.72;100957.53;4333786;33;19979;-86
2022/05/19 02:14:08;;;;;;;;;;;;;;;9.59;59.73;100953.97;4347234;33;19994;-87
2022/05/19 02:16:34;;;;;;;;;;;;;;;9.43;59.72;100958.44;4333701;33;20010;-86
2022/05/19 02:18:59;;;;;;;;;;;;;;;9.54;59.72;100958.34;4333629;33;20019;-86
2022/05/19 02:21:25;;;;;;;;;;;;;;;9.35;59.72;100954.19;4333558;33;19987;-86
2022/05/19 02:23:50;;;;;;;;;;;;;;;9.30;59.71;100954.22;4333573;33;19995;-87
2022/05/19 02:26:15;;;;;;;;;;;;;;;9.26;59.71;100949.94;4346979;33;19991;-87
2022/05/19 02:28:40;;;;;;;;;;;;;;;9.20;59.70;100955.13;4346634;33;19983;-87
2022/05/19 02:31:05;;;;;;;;;;;;;;;9.24;59.70;100956.88;4347134;33;20019;-87
2022/05/19 02:33:31;;;;;;;;;;;;;;;9.20;59.71;100962.94;4333290;33;20021;-86
2022/05/19 02:35:56;;;;;;;;;;;;;;;9.23;59.71;100960.34;4333248;33;20074;-87
2022/05/19 02:38:21;;;;;;;;;;;;;;;9.17;59.70;100965.56;4333460;33;19995;-87
2022/05/19 02:40:47;;;;;;;;;;;;;;;9.03;59.69;100975.19;4347167;33;19988;-86
2022/05/19 02:43:12;;;;;;;;;;;;;;;8.96;59.69;100973.47;4335414;33;20053;-87
2022/05/19 02:45:37;;;;;;;;;;;;;;;8.93;59.69;100977.81;4335579;33;20050;-87
2022/05/19 02:48:03;;;;;;;;;;;;;;;9.07;59.69;100975.16;4335364;33;19980;-86
2022/05/19 02:50:28;;;;;;;;;;;;;;;8.88;59.68;100979.59;4323189;33;19983;-87
2022/05/19 02:52:53;;;;;;;;;;;;;;;8.66;59.68;100980.56;4348999;33;20021;-87
2022/05/19 02:55:19;;;;;;;;;;;;;;;8.74;59.67;100977.94;4323238;33;19995;-86
2022/05/19 02:57:44;;;;;;;;;;;;;;;8.79;59.68;100979.66;4348808;33;20348;-87
2022/05/19 03:00:12;;;;;;;;;;;;;;;8.70;59.68;100973.63;4335215;33;20009;-87
2022/05/19 03:02:37;;;;;;;;;;;;;;;8.73;59.67;100979.66;4335472;33;20022;-87
2022/05/19 03:05:03;;;;;;;;;;;;;;;8.86;59.68;100981.34;4335156;33;20314;-86
2022/05/19 03:07:28;;;;;;;;;;;;;;;8.71;59.67;100984.00;4333614;33;20353;-86
2022/05/19 03:09:53;;;;;;;;;;;;;;;8.59;59.68;100987.53;4334143;33;23377;-87
2022/05/19 03:12:18;;;;;;;;;;;;;;;8.62;59.67;100986.66;4333405;33;20376;-87
2022/05/19 03:14:44;;;;;;;;;;;;;;;8.71;59.67;100985.72;4332338;33;20049;-86
2022/05/19 03:17:09;;;;;;;;;;;;;;;8.65;59.67;100996.16;4344951;32;19987;-86
2022/05/19 03:19:35;;;;;;;;;;;;;;;8.68;59.68;100989.22;4348645;33;19972;-87
2022/05/19 03:22:00;;;;;;;;;;;;;;;8.65;59.67;100985.75;4335164;33;19988;-87
2022/05/19 03:24:25;;;;;;;;;;;;;;;8.62;59.67;100986.66;4347357;33;19995;-87
2022/05/19 03:26:50;;;;;;;;;;;;;;;8.69;59.68;100990.94;4348263;33;21292;-87
2022/05/19 03:29:16;;;;;;;;;;;;;;;8.47;59.67;100994.47;4334709;33;20297;-86
2022/05/19 03:31:41;;;;;;;;;;;;;;;8.68;59.67;100997.00;4334765;33;19991;-87
2022/05/19 03:34:06;;;;;;;;;;;;;;;8.72;59.67;101001.28;4335054;33;19991;-86
2022/05/19 03:36:31;;;;;;;;;;;;;;;8.71;59.67;101004.75;4335059;33;19972;-87
2022/05/19 03:38:57;;;;;;;;;;;;;;;8.82;59.69;101005.59;4334987;33;19976;-86
2022/05/19 03:41:22;;;;;;;;;;;;;;;8.74;59.68;101002.16;4348526;33;20010;-87
2022/05/19 03:43:47;;;;;;;;;;;;;;;8.77;59.68;101009.09;4335038;33;19997;-86
2022/05/19 03:46:13;;;;;;;;;;;;;;;8.81;59.67;101003.88;4348360;33;20276;-87
2022/05/19 03:48:38;;;;;;;;;;;;;;;8.95;59.69;101011.56;4347055;32;19995;-86
2022/05/19 03:51:04;;;;;;;;;;;;;;;8.99;59.69;101015.00;4332128;33;20007;-87
2022/05/19 03:53:30;;;;;;;;;;;;;;;9.09;59.70;101011.50;4332063;33;19984;-87
2022/05/19 03:55:55;;;;;;;;;;;;;;;9.24;59.70;101014.03;4332419;33;19976;-87
2022/05/19 03:58:20;;;;;;;;;;;;;;;9.47;59.72;101011.28;4332544;33;20039;-87
2022/05/19 04:00:45;;;;;;;;;;;;;;;9.49;59.73;101009.53;4332200;33;20320;-86
2022/05/19 04:03:11;;;;;;;;;;;;;;;9.37;59.72;101009.59;4332284;33;19976;-87
2022/05/19 04:05:36;;;;;;;;;;;;;;;9.41;59.71;101006.97;4319829;33;20019;-86
2022/05/19 04:08:01;;;;;;;;;;;;;;;9.55;59.72;101017.25;4332411;33;20057;-86
2022/05/19 04:10:26;;;;;;;;;;;;;;;9.59;59.72;101016.37;4332284;33;20027;-86
2022/05/19 04:12:52;;;;;;;;;;;;;;;9.71;59.73;101018.88;4333637;33;20007;-87
2022/05/19 04:15:18;;;;;;;;;;;;;;;9.77;59.73;101021.41;4333535;33;20019;-87
2022/05/19 04:17:43;;;;;;;;;;;;;;;9.95;59.74;101019.53;4333700;33;19987;-87
2022/05/19 04:20:09;;;;;;;;;;;;;;;9.90;59.74;101019.56;4319968;33;20006;-86
2022/05/19 04:22:35;;;;;;;;;;;;;;;10.03;59.75;101025.53;4320038;33;19992;-86
2022/05/19 04:25:00;;;;;;;;;;;;;;;10.10;59.75;101022.84;4335032;33;19994;-87
2022/05/19 04:27:27;;;;;;;;;;;;;;;10.03;59.75;101031.59;4334670;33;19975;-87
2022/05/19 04:29:53;;;;;;;;;;;;;;;10.34;59.77;101031.31;4333451;33;20063;-87
2022/05/19 04:32:18;;;;;;;;;;;;;;;10.27;59.76;101029.66;4333227;33;20000;-86
2022/05/19 04:34:43;;;;;;;;;;;;;;;10.34;59.77;101031.31;4333437;33;19988;-86
2022/05/19 04:37:08;;;;;;;;;;;;;;;10.65;59.78;101024.03;4321082;33;19972;-87
2022/05/19 04:39:34;;;;;;;;;;;;;;;10.54;59.77;101028.50;4320995;33;19999;-87
2022/05/19 04:41:59;;;;;;;;;;;;;;;10.59;59.78;101029.28;4340520;33;20040;-87
2022/05/19 04:44:24;;;;;;;;;;;;;;;10.80;59.79;101031.66;4337583;33;19998;-87
2022/05/19 04:46:50;;;;;;;;;;;;;;;11.16;59.82;101019.03;4333293;33;19998;-86
2022/05/19 04:49:15;;;;;;;;;;;;;;;11.36;59.82;101017.88;4334498;33;20006;-87
2022/05/19 04:51:40;;;;;;;;;;;;;;;11.63;59.83;101023.53;4333330;33;19992;-87
2022/05/19 04:54:05;;;;;;;;;;;;;;;11.85;59.85;101021.47;4333399;33;19976;-87
2022/05/19 04:56:31;;;;;;;;;;;;;;;11.99;59.85;101020.31;4334276;33;19984;-87
2022/05/19 04:58:56;;;;;;;;;;;;;;;12.12;59.85;101020.97;4334671;33;20330;-87
2022/05/19 05:01:21;;;;;;;;;;;;;;;12.09;59.86;101018.44;4320829;33;20006;-87
2022/05/19 05:03:47;;;;;;;;;;;;;;;12.36;59.88;101016.19;4333734;33;19983;-87
2022/05/19 05:06:12;;;;;;;;;;;;;;;12.58;59.89;101012.28;4333449;33;20268;-87
2022/05/19 05:08:37;;;;;;;;;;;;;;;12.56;59.88;101020.13;4333105;33;20010;-87
2022/05/19 05:11:02;;;;;;;;;;;;;;;12.87;59.90;101011.66;4332695;33;19988;-87
2022/05/19 05:13:28;;;;;;;;;;;;;;;13.19;59.93;101017.06;4332954;33;19995;-87
2022/05/19 05:15:53;;;;;;;;;;;;;;;13.33;59.93;101008.06;4334249;33;19960;-87
2022/05/19 05:18:18;;;;;;;;;;;;;;;13.43;59.94;101015.63;4320679;33;20345;-87
2022/05/19 05:20:43;;;;;;;;;;;;;;;13.52;59.94;101017.19;4320545;33;19996;-87
2022/05/19 05:23:09;;;;;;;;;;;;;;;13.75;59.95;101014.03;4333059;33;19984;-87
2022/05/19 05:25:34;;;;;;;;;;;;;;;13.97;59.97;101011.72;4333041;33;20266;-87
2022/05/19 05:28:00;;;;;;;;;;;;;;;14.00;59.96;101019.50;4332904;33;20001;-87
2022/05/19 05:30:25;;;;;;;;;;;;;;;14.06;59.97;101017.56;4332908;33;19996;-87
2022/05/19 05:32:50;;;;;;;;;;;;;;;14.30;59.98;101017.81;4320374;33;20032;-87
2022/05/19 05:35:16;;;;;;;;;;;;;;;14.50;59.99;101012.06;4332845;33;20781;-87
2022/05/19 05:37:41;;;;;;;;;;;;;;;14.50;60.00;101023.41;4320184;33;20007;-87
2022/05/19 05:40:07;;;;;;;;;;;;;;;14.74;60.01;101021.84;4332704;33;20019;-87
2022/05/19 05:42:32;;;;;;;;;;;;;;;14.86;60.02;101024.09;4320472;33;20003;-87
2022/05/19 05:44:58;;;;;;;;;;;;;;;15.00;60.02;101021.94;4332616;33;19992;-87
2022/05/19 05:47:23;;;;;;;;;;;;;;;15.11;60.04;101026.00;4333923;33;20337;-87
2022/05/19 05:49:48;;;;;;;;;;;;;;;15.22;60.03;101023.91;4320246;33;19988;-86
2022/05/19 05:52:13;;;;;;;;;;;;;;;15.59;60.05;101026.25;4320374;33;19980;-87
2022/05/19 05:54:39;;;;;;;;;;;;;;;15.87;60.07;101019.22;4333799;33;19968;-87
2022/05/19 05:57:04;;;;;;;;;;;;;;;16.04;60.08;101026.50;4332104;33;22165;-87
2022/05/19 05:59:29;;;;;;;;;;;;;;;16.07;60.08;101028.16;4332306;33;20027;-87
2022/05/19 06:01:54;;;;;;;;;;;;;;;16.20;60.08;101030.31;4332464;33;20294;-87
2022/05/19 06:04:20;;;;;;;;;;;;;;;16.44;60.09;101014.59;4333374;33;19971;-87
2022/05/19 06:06:46;;;;;;;;;;;;;;;16.52;60.10;101018.66;4333620;33;19972;-87
2022/05/19 06:09:14;;;;;;;;;;;;;;;16.73;60.11;101006.53;4332371;33;19984;-87
2022/05/19 06:11:39;;;;;;;;;;;;;;;16.93;60.13;101003.16;4332263;33;19976;-87
2022/05/19 06:14:05;;;;;;;;;;;;;;;16.90;60.12;101005.91;4320065;33;19976;-87
2022/05/19 06:16:30;;;;;;;;;;;;;;;17.18;60.14;101005.69;4334450;33;19995;-87
2022/05/19 06:18:55;;;;;;;;;;;;;;;17.39;60.15;101004.84;4335702;33;20287;-87
2022/05/19 06:21:21;;;;;;;;;;;;;;;17.78;60.17;101004.19;4334056;33;19999;-87
2022/05/19 06:23:46;;;;;;;;;;;;;;;17.85;60.18;101008.25;4334339;33;19990;-87
2022/05/19 06:26:12;;;;;;;;;;;;;;;17.92;60.17;101003.56;4334371;33;19992;-88
2022/05/19 06:28:37;;;;;;;;;;;;;;;18.02;60.19;101013.66;4334345;33;20006;-87
2022/05/19 06:31:03;;;;;;;;;;;;;;;18.38;60.21;101008.56;4342032;33;19979;-87
2022/05/19 06:33:28;;;;;;;;;;;;;;;18.53;60.21;101009.69;4338291;33;20275;-87
2022/05/19 06:35:54;;;;;;;;;;;;;;;18.96;60.24;101007.75;4335492;33;20017;-88
2022/05/19 06:38:19;;;;;;;;;;;;;;;19.06;60.24;101010.81;4322063;33;20000;-87
2022/05/19 06:40:44;;;;;;;;;;;;;;;19.12;60.24;101003.44;4322046;33;20007;-88
2022/05/19 06:43:10;;;;;;;;;;;;;;;19.33;60.26;101006.84;4335411;33;19991;-87
2022/05/19 06:45:36;;;;;;;;;;;;;;;19.87;60.29;100998.03;4334348;33;20403;-87
2022/05/19 06:48:01;;;;;;;;;;;;;;;20.23;60.31;101003.19;4334491;33;20002;-88
2022/05/19 06:50:26;;;;;;;;;;;;;;;20.57;60.32;100993.50;4335667;33;20011;-88
2022/05/19 06:52:59;;;;;;;;;;;;;;;20.87;60.34;100991.00;4321771;33;19988;-88
2022/05/19 06:55:25;;;;;;;;;;;;;;;21.07;60.34;100996.06;4334272;33;19995;-88
2022/05/19 06:57:50;;;;;;;;;;;;;;;21.25;60.36;100993.31;4335301;33;20299;-88
2022/05/19 07:00:16;;;;;;;;;;;;;;;21.57;60.38;101008.25;4334232;33;20283;-87
2022/05/19 07:02:46;;;;;;;;;;;;;;;21.48;60.37;100997.31;4321839;33;19999;-87
2022/05/19 07:05:11;;;;;;;;;;;;;;;21.53;60.37;100998.78;4335236;33;20002;-88
2022/05/19 07:07:37;;;;;;;;;;;;;;;21.64;60.38;100992.84;4334162;33;20011;-87
2022/05/19 07:10:02;;;;;;;;;;;;;;;21.70;60.39;100995.97;4334021;33;20335;-88
2022/05/19 07:12:27;;;;;;;;;;;;;;;21.82;60.38;100998.88;4335135;33;19968;-87
2022/05/19 07:14:53;;;;;;;;;;;;;;;21.86;60.39;100997.75;4334102;33;20027;-88
2022/05/19 07:17:18;;;;;;;;;;;;;;;22.02;60.40;100994.09;4334075;33;20261;-88
2022/05/19 07:22:28;;;;;;;;;;;;;;;22.07;60.40;100988.53;4334261;33;20002;-87
2022/05/19 07:24:53;;;;;;;;;;;;;;;22.19;60.41;100994.91;4335180;33;19984;-85
2022/05/19 07:27:18;;;;;;;;;;;;;;;22.41;60.42;100984.69;4333350;33;19991;-85
2022/05/19 07:29:44;;;;;;;;;;;;;;;22.41;60.43;100989.13;4333862;33;20290;-84
2022/05/19 07:32:09;;;;;;;;;;;;;;;22.64;60.43;100993.88;4334055;33;19968;-85
2022/05/19 07:34:35;;;;;;;;;;;;;;;22.59;60.43;100988.00;4334910;33;20016;-85
2022/05/19 07:37:00;;;;;;;;;;;;;;;22.58;60.43;100994.25;4334032;33;19984;-85
2022/05/19 07:39:25;;;;;;;;;;;;;;;22.43;60.42;100992.53;4334021;33;19968;-85
2022/05/19 07:41:53;;;;;;;;;;;;;;;22.49;60.43;100984.22;4333640;33;19968;-85
2022/05/19 07:44:18;;;;;;;;;;;;;;;22.77;60.44;100986.00;4333872;33;19996;-85
2022/05/19 07:46:43;;;;;;;;;;;;;;;22.79;60.45;100978.78;4335018;33;20031;-86
2022/05/19 07:49:08;;;;;;;;;;;;;;;22.77;60.44;100986.84;4334918;33;20335;-85
2022/05/19 07:51:39;;;;;;;;;;;;;;;22.90;60.45;100981.63;4334918;33;19986;-85
2022/05/19 07:54:05;;;;;;;;;;;;;;;23.03;60.46;100981.72;4321564;33;20004;-85
2022/05/19 07:56:31;;;;;;;;;;;;;;;23.25;60.46;100984.69;4334943;33;20010;-85
2022/05/19 07:58:56;;;;;;;;;;;;;;;23.50;60.48;100987.44;4334968;33;19980;-85
2022/05/19 08:01:21;;;;;;;;;;;;;;;23.53;60.48;100989.03;4333745;33;20318;-86
2022/05/19 08:03:46;;;;;;;;;;;;;;;23.59;60.49;100986.00;4333573;33;20015;-86
2022/05/19 08:06:12;;;;;;;;;;;;;;;23.60;60.49;100993.03;4334678;33;19980;-86
2022/05/19 08:08:37;;;;;;;;;;;;;;;23.67;60.49;100986.37;4321437;33;20031;-86
2022/05/19 08:11:03;;;;;;;;;;;;;;;23.75;60.50;100984.03;4333971;33;20327;-86
2022/05/19 08:16:12;;;;;;;;;;;;;;;23.97;60.51;100986.09;4334945;33;20050;-86
2022/05/19 08:18:38;;;;;;;;;;;;;;;24.05;60.51;100986.41;4334251;33;19988;-86
2022/05/19 08:21:05;;;;;;;;;;;;;;;24.13;60.52;100985.87;4329955;33;19963;-87
2022/05/19 08:23:35;;;;;;;;;;;;;;;24.35;60.53;100979.94;4321312;33;20005;-86
2022/05/19 08:26:00;;;;;;;;;;;;;;;24.41;60.52;100979.53;4333610;33;20337;-86
2022/05/19 08:28:29;;;;;;;;;;;;;;;24.61;60.54;100976.31;4334701;33;19990;-86
2022/05/19 08:30:54;;;;;;;;;;;;;;;24.83;60.54;100982.75;4334790;33;20427;-85
2022/05/19 08:33:20;;;;;;;;;;;;;;;24.75;60.55;100977.97;4334720;33;19984;-86
2022/05/19 08:35:45;;;;;;;;;;;;;;;24.92;60.56;100974.12;4334658;33;19975;-86
2022/05/19 08:38:10;;;;;;;;;;;;;;;25.24;60.57;100967.31;4333367;33;20258;-86
2022/05/19 08:40:42;;;;;;;;;;;;;;;25.50;60.58;100973.34;4319988;33;19980;-85
2022/05/19 08:43:07;;;;;;;;;;;;;;;25.67;60.59;100972.13;4334708;33;20000;-85
2022/05/19 08:45:35;;;;;;;;;;;;;;;25.83;60.60;100970.00;4332795;33;20015;-86
2022/05/19 08:48:21;;;;;;;;;;;;;;;26.16;60.62;100963.88;4321104;33;20385;-85
2022/05/19 08:50:52;;;;;;;;;;;;;;;26.24;60.63;100960.59;4334607;33;19972;-86
2022/05/19 08:53:18;;;;;;;;;;;;;;;26.44;60.63;100959.91;4334830;33;20015;-86
2022/05/19 08:55:45;;;;;;;;;;;;;;;26.56;60.64;100961.63;4333655;33;19992;-85
2022/05/19 08:58:10;;;;;;;;;;;;;;;26.31;60.63;100964.50;4333443;33;20038;-85
2022/05/19 09:00:40;;;;;;;;;;;;;;;26.44;60.63;100964.41;4334778;33;19996;-85
2022/05/19 09:03:09;;;;;;;;;;;;;;;26.46;60.63;100959.78;4334566;33;20043;-86
2022/05/19 09:05:34;;;;;;;;;;;;;;;26.44;60.63;100967.06;4321087;33;20055;-86
2022/05/19 09:08:15;;;;;;;;;;;;;;;26.48;60.64;100957.84;4334551;33;19987;-85
2022/05/19 09:11:19;;;;;;;;;;;;;;;26.35;60.63;100965.13;4333417;33;19984;-86
2022/05/19 09:13:51;;;;;;;;;;;;;;;26.55;60.65;100956.41;4302728;33;20019;-86
2022/05/19 09:16:20;;;;;;;;;;;;;;;26.57;60.64;100943.78;4302811;33;20000;-86
2022/05/19 09:18:52;;;;;;;;;;;;;;;26.73;60.65;100952.25;4306649;33;20010;-86
2022/05/19 09:21:18;;;;;;;;;;;;;;;26.75;60.65;100944.12;4334436;33;19963;-85
2022/05/19 09:23:43;;;;;;;;;;;;;;;26.96;60.67;100941.50;4333001;33;20336;-85
2022/05/19 09:26:27;;;;;;;;;;;;;;;27.18;60.68;100942.31;4333947;33;19995;-85
2022/05/19 09:28:59;;;;;;;;;;;;;;;27.24;60.67;100941.00;4334390;33;19992;-85
2022/05/19 09:31:46;;;;;;;;;;;;;;;27.17;60.67;100937.97;4333256;33;20396;-85
2022/05/19 09:34:11;;;;;;;;;;;;;;;27.17;60.67;100942.44;4333172;33;20006;-86
2022/05/19 09:36:41;;;;;;;;;;;;;;;27.41;60.68;100951.09;4332639;33;19988;-85
2022/05/19 09:39:08;;;;;;;;;;;;;;;27.39;60.68;100945.03;4332902;33;19984;-86
2022/05/19 09:41:39;;;;;;;;;;;;;;;27.54;60.69;100934.91;4332914;33;20345;-86
2022/05/19 09:44:04;;;;;;;;;;;;;;;27.74;60.70;100933.25;4334074;33;20003;-85
2022/05/19 09:46:40;;;;;;;;;;;;;;;27.74;60.70;100928.75;4332835;33;19992;-86
2022/05/19 09:49:06;;;;;;;;;;;;;;;27.75;60.71;100926.91;4333836;33;19990;-86
2022/05/19 09:51:38;;;;;;;;;;;;;;;27.84;60.71;100928.78;4333860;33;19964;-85
2022/05/19 09:54:04;;;;;;;;;;;;;;;27.93;60.71;100921.81;4322207;33;19987;-86
2022/05/19 09:56:39;;;;;;;;;;;;;;;27.93;60.71;100921.81;4335766;33;20111;-86
2022/05/19 09:59:11;;;;;;;;;;;;;;;28.13;60.73;100924.44;4322032;33;19983;-86
2022/05/19 10:01:40;;;;;;;;;;;;;;;28.13;60.73;100912.88;4335683;33;19972;-86
2022/05/19 10:04:14;;;;;;;;;;;;;;;28.11;60.73;100910.34;4335582;33;20038;-85
2022/05/19 10:06:51;;;;;;;;;;;;;;;28.36;60.74;100903.72;4335580;33;20046;-86
2022/05/19 10:09:17;;;;;;;;;;;;;;;28.42;60.73;100905.88;4336017;33;20007;-86
2022/05/19 10:12:01;;;;;;;;;;;;;;;28.67;60.75;100906.38;4335457;33;19994;-85
2022/05/19 10:14:28;;;;;;;;;;;;;;;28.79;60.75;100899.88;4335499;33;19999;-85
2022/05/19 10:17:02;;;;;;;;;;;;;;;28.82;60.76;100891.56;4322061;33;19996;-85
2022/05/19 10:19:50;;;;;;;;;;;;;;;28.88;60.76;100892.91;4334274;33;19996;-85
2022/05/19 10:22:18;;;;;;;;;;;;;;;29.02;60.77;100889.78;4331176;33;20031;-86
2022/05/19 10:24:46;;;;;;;;;;;;;;;28.47;60.74;100899.25;4335467;33;20031;-85
2022/05/19 10:32:52;;;;;;;;;;;;;;;28.69;60.75;100888.31;4334412;33;20302;-85
2022/05/19 10:35:36;;;;;;;;;;;;;;;28.89;60.76;100886.56;4321856;33;20000;-85
2022/05/19 10:38:18;;;;;;;;;;;;;;;28.94;60.76;100873.56;4335328;33;20002;-84
2022/05/19 10:40:43;;;;;;;;;;;;;;;29.13;60.77;100870.91;4321787;33;20055;-85
2022/05/19 10:43:27;;;;;;;;;;;;;;;29.13;60.77;100859.34;4321548;33;20015;-85
2022/05/19 10:45:52;;;;;;;;;;;;;;;29.29;60.78;100864.94;4335253;33;20099;-85
2022/05/19 10:48:18;;;;;;;;;;;;;;;29.34;60.78;100858.19;4334103;33;20038;-85
2022/05/19 10:50:49;;;;;;;;;;;;;;;29.46;60.79;100864.25;4334971;33;19980;-85
2022/05/19 10:53:33;;;;;;;;;;;;;;;29.47;60.80;100857.91;4333996;33;19972;-85
2022/05/19 10:55:58;;;;;;;;;;;;;;;29.47;60.79;100847.16;4335232;33;20353;-84
2022/05/19 10:58:42;;;;;;;;;;;;;;;29.62;60.81;100851.09;4335174;33;19980;-83
2022/05/19 11:01:17;;;;;;;;;;;;;;;29.57;60.80;100841.78;4335200;33;19991;-84
2022/05/19 11:03:42;;;;;;;;;;;;;;;29.66;60.80;100835.56;4333283;33;20038;-84
2022/05/19 11:06:08;;;;;;;;;;;;;;;29.79;60.81;100832.53;4321561;33;19991;-84
2022/05/19 11:08:52;;;;;;;;;;;;;;;29.94;60.81;100831.06;4335114;33;19980;-84
2022/05/19 11:11:19;;;;;;;;;;;;;;;30.01;60.81;100829.47;4308872;33;893254;-84
2022/05/19 11:13:58;;;;;;;;;;;;;;;30.10;60.83;100834.00;4321674;33;19983;-83
2022/05/19 11:16:42;;;;;;;;;;;;;;;30.08;60.82;100816.34;4333902;33;19991;-84
2022/05/19 11:19:12;;;;;;;;;;;;;;;29.96;60.82;100815.66;4321861;33;19992;-84
2022/05/19 11:21:43;;;;;;;;;;;;;;;30.08;60.82;100808.31;4334034;33;20007;-84
2022/05/19 11:24:10;;;;;;;;;;;;;;;30.14;60.82;100811.22;4333892;33;20310;-84
2022/05/19 11:26:38;;;;;;;;;;;;;;;29.90;60.82;100813.56;4333841;33;20002;-83
2022/05/19 11:29:03;;;;;;;;;;;;;;;29.75;60.81;100812.34;4321611;33;19987;-84
2022/05/19 11:31:47;;;;;;;;;;;;;;;29.69;60.80;100800.38;4334958;33;19976;-84
2022/05/19 11:34:17;;;;;;;;;;;;;;;29.51;60.80;100805.63;4335310;33;20006;-84
2022/05/19 11:36:44;;;;;;;;;;;;;;;29.41;60.79;100799.44;4334072;33;19999;-84
2022/05/19 11:39:14;;;;;;;;;;;;;;;29.18;60.78;100800.75;4333834;33;20006;-84
2022/05/19 11:41:39;;;;;;;;;;;;;;;29.43;60.79;100794.78;4334020;33;19987;-84
2022/05/19 11:44:11;;;;;;;;;;;;;;;29.65;60.81;100788.25;4333767;33;20012;-83
2022/05/19 11:46:50;;;;;;;;;;;;;;;29.70;60.81;100785.97;4321452;33;20035;-84
2022/05/19 11:55:17;;;;;;;;;;;;;;;29.76;60.81;100793.41;4334931;33;19991;-84
2022/05/19 11:57:47;;;;;;;;;;;;;;;29.67;60.81;100783.56;4333749;33;19988;-84
2022/05/19 12:00:18;;;;;;;;;;;;;;;29.69;60.80;100776.22;4333942;33;20263;-84
2022/05/19 12:02:48;;;;;;;;;;;;;;;29.82;60.81;100770.53;4333630;33;20027;-84
2022/05/19 12:05:14;;;;;;;;;;;;;;;29.83;60.81;100766.84;4333562;33;19975;-84
2022/05/19 12:07:43;;;;;;;;;;;;;;;30.00;60.82;100763.34;4333791;33;19991;-84
2022/05/19 12:10:09;;;;;;;;;;;;;;;30.01;60.82;100758.81;4333856;33;20251;-84
2022/05/19 12:12:37;;;;;;;;;;;;;;;30.21;60.83;100755.91;4333515;33;19985;-84
2022/05/19 12:15:08;;;;;;;;;;;;;;;30.32;60.83;100760.22;4333550;33;20406;-84
2022/05/19 12:17:38;;;;;;;;;;;;;;;30.48;60.84;100755.00;4321468;33;20376;-84
2022/05/19 12:20:10;;;;;;;;;;;;;;;30.35;60.83;100759.09;4335044;33;20369;-84
2022/05/19 12:22:44;;;;;;;;;;;;;;;30.20;60.83;100754.22;4333614;33;20325;-84
2022/05/19 12:25:20;;;;;;;;;;;;;;;30.15;60.83;100753.00;4321264;33;20365;-84
2022/05/19 12:27:57;;;;;;;;;;;;;;;30.07;60.82;100753.75;4334914;33;19992;-84
2022/05/19 12:33:35;;;;;;;;;;;;;;;30.18;60.84;100742.78;4333626;33;20405;-84
2022/05/19 12:36:00;;;;;;;;;;;;;;;30.24;60.83;100744.00;4334566;33;19999;-84
2022/05/19 12:38:46;;;;;;;;;;;;;;;30.09;60.82;100742.84;4321002;33;19996;-84
2022/05/19 12:41:11;;;;;;;;;;;;;;;30.24;60.83;100742.16;4334320;33;19996;-83
2022/05/19 12:43:43;;;;;;;;;;;;;;;30.20;60.83;100743.47;4334579;33;20537;-84
2022/05/19 12:46:28;;;;;;;;;;;;;;;30.23;60.83;100745.00;4333340;33;20004;-84
2022/05/19 12:49:09;;;;;;;;;;;;;;;29.71;60.81;100736.66;4334472;33;19999;-83
2022/05/19 12:51:53;;;;;;;;;;;;;;;29.71;60.81;100733.97;4333589;33;20010;-84
2022/05/19 12:54:19;;;;;;;;;;;;;;;29.83;60.81;100734.63;4334464;33;20413;-84
2022/05/19 12:56:46;;;;;;;;;;;;;;;29.89;60.82;100731.34;4320943;33;19980;-84
2022/05/19 12:59:31;;;;;;;;;;;;;;;29.89;60.82;100731.34;4334423;33;19992;-84
2022/05/19 13:02:01;;;;;;;;;;;;;;;30.08;60.82;100728.59;4334658;33;19984;-84
2022/05/19 13:04:28;;;;;;;;;;;;;;;30.13;60.83;100734.34;4334630;33;20360;-84
2022/05/19 13:06:54;;;;;;;;;;;;;;;30.13;60.83;100730.81;4334308;33;20369;-83